createdAt,value
2022-09-03T00:01:06.176Z,15.09
2022-09-03T00:03:37.218Z,15.10
2022-09-03T00:06:12.498Z,15.07
2022-09-03T00:08:44.300Z,15.07
2022-09-03T00:11:31.286Z,14.97
2022-09-03T00:14:10.936Z,14.93
2022-09-03T00:16:57.649Z,14.94
2022-09-03T00:19:25.560Z,14.78
2022-09-03T00:21:55.022Z,14.74
2022-09-03T00:24:19.414Z,14.71
2022-09-03T00:26:45.349Z,14.66
2022-09-03T00:29:12.320Z,14.51
2022-09-03T00:31:42.867Z,14.60
2022-09-03T00:34:23.872Z,14.68
2022-09-03T00:36:45.980Z,14.58
2022-09-03T00:39:09.797Z,14.48
2022-09-03T00:41:38.693Z,14.50
2022-09-03T00:44:31.215Z,14.39
2022-09-03T00:47:11.032Z,14.47
2022-09-03T00:49:45.675Z,14.43
2022-09-03T00:52:35.197Z,14.23
2022-09-03T00:55:09.105Z,14.24
2022-09-03T00:58:01.091Z,14.24
2022-09-03T01:00:23.162Z,14.21
2022-09-03T01:02:50.765Z,14.01
2022-09-03T01:05:34.515Z,14.01
2022-09-03T01:08:21.257Z,13.99
2022-09-03T01:11:04.424Z,13.99
2022-09-03T01:13:54.924Z,14.05
2022-09-03T01:16:53.611Z,13.93
2022-09-03T01:19:45.854Z,13.91
2022-09-03T01:22:10.201Z,13.88
2022-09-03T01:24:58.807Z,13.75
2022-09-03T01:27:47.207Z,13.72
2022-09-03T01:30:17.931Z,13.70
2022-09-03T01:32:54.413Z,13.64
2022-09-03T01:35:23.971Z,13.57
2022-09-03T01:38:20.815Z,13.67
2022-09-03T01:41:33.452Z,13.68
2022-09-03T01:44:07.085Z,13.68
2022-09-03T01:46:38.657Z,13.66
2022-09-03T01:49:35.490Z,13.62
2022-09-03T01:52:12.502Z,13.46
2022-09-03T01:55:13.901Z,13.39
2022-09-03T01:57:46.031Z,13.56
2022-09-03T02:00:20.205Z,13.39
2022-09-03T02:02:43.982Z,13.32
2022-09-03T02:05:11.601Z,13.45
2022-09-03T02:07:35.678Z,13.49
2022-09-03T02:09:57.129Z,13.45
2022-09-03T02:12:20.249Z,13.48
2022-09-03T02:14:42.408Z,13.34
2022-09-03T02:17:07.021Z,13.30
2022-09-03T02:19:30.630Z,13.24
2022-09-03T02:21:55.514Z,13.21
2022-09-03T02:24:17.375Z,13.16
2022-09-03T02:26:38.819Z,13.04
2022-09-03T02:29:02.661Z,13.10
2022-09-03T02:31:24.143Z,13.08
2022-09-03T02:33:48.479Z,13.16
2022-09-03T02:36:12.302Z,13.10
2022-09-03T02:38:34.336Z,13.16
2022-09-03T02:40:55.919Z,13.19
2022-09-03T02:43:42.588Z,13.15
2022-09-03T02:46:08.621Z,13.19
2022-09-03T02:48:30.273Z,13.20
2022-09-03T02:50:51.966Z,13.21
2022-09-03T02:53:13.461Z,13.32
2022-09-03T02:55:35.030Z,13.31
2022-09-03T02:57:57.439Z,13.21
2022-09-03T03:00:18.933Z,13.24
2022-09-03T03:02:40.482Z,13.27
2022-09-03T03:05:02.232Z,13.47
2022-09-03T03:07:23.673Z,13.56
2022-09-03T03:09:45.807Z,13.81
2022-09-03T03:12:09.060Z,13.83
2022-09-03T03:14:30.515Z,13.97
2022-09-03T03:16:52.045Z,14.09
2022-09-03T03:19:13.549Z,14.14
2022-09-03T03:21:34.992Z,14.21
2022-09-03T03:23:56.434Z,14.13
2022-09-03T03:26:20.675Z,14.32
2022-09-03T03:28:42.421Z,14.45
2022-09-03T03:31:11.643Z,14.61
2022-09-03T03:33:33.643Z,14.63
2022-09-03T03:35:55.077Z,14.58
2022-09-03T03:38:16.532Z,14.60
2022-09-03T03:40:39.260Z,14.64
2022-09-03T03:43:00.724Z,14.64
2022-09-03T03:45:22.177Z,14.61
2022-09-03T03:47:43.643Z,14.65
2022-09-03T03:50:05.676Z,14.66
2022-09-03T03:52:27.343Z,14.71
2022-09-03T03:54:50.181Z,14.65
2022-09-03T03:57:11.608Z,14.74
2022-09-03T03:59:33.058Z,14.87
2022-09-03T04:01:55.509Z,15.01
2022-09-03T04:04:17.466Z,15.01
2022-09-03T04:06:38.904Z,15.03
2022-09-03T04:09:00.351Z,15.05
2022-09-03T04:11:24.202Z,15.08
2022-09-03T04:13:47.040Z,15.04
2022-09-03T04:16:15.964Z,15.04
2022-09-03T04:18:38.694Z,15.07
2022-09-03T04:21:07.076Z,15.17
2022-09-03T04:23:28.509Z,15.14
2022-09-03T04:25:53.653Z,14.99
2022-09-03T04:28:15.219Z,14.88
2022-09-03T04:30:37.663Z,14.90
2022-09-03T04:32:59.830Z,14.91
2022-09-03T04:35:23.239Z,14.90
2022-09-03T04:37:44.721Z,14.78
2022-09-03T04:40:06.722Z,14.87
2022-09-03T04:42:28.171Z,14.67
2022-09-03T04:44:49.600Z,14.62
2022-09-03T04:47:11.059Z,14.51
2022-09-03T04:49:32.596Z,14.64
2022-09-03T04:51:54.028Z,14.41
2022-09-03T04:54:15.516Z,14.49
2022-09-03T04:56:39.326Z,14.58
2022-09-03T04:59:06.869Z,14.54
2022-09-03T05:01:30.929Z,14.49
2022-09-03T05:03:52.670Z,14.47
2022-09-03T05:06:17.053Z,14.53
2022-09-03T05:08:38.618Z,14.29
2022-09-03T05:11:00.779Z,14.35
2022-09-03T05:13:22.494Z,14.35
2022-09-03T05:15:45.411Z,14.49
2022-09-03T05:18:06.888Z,14.34
2022-09-03T05:20:30.046Z,14.56
2022-09-03T05:22:52.166Z,14.48
2022-09-03T05:25:13.698Z,14.57
2022-09-03T05:27:35.233Z,14.48
2022-09-03T05:29:56.689Z,14.51
2022-09-03T05:32:18.176Z,14.58
2022-09-03T05:34:39.827Z,14.70
2022-09-03T05:37:01.389Z,14.77
2022-09-03T05:39:22.892Z,15.03
2022-09-03T05:41:44.480Z,15.18
2022-09-03T05:44:06.078Z,15.22
2022-09-03T05:46:32.247Z,15.41
2022-09-03T05:48:54.019Z,15.45
2022-09-03T05:51:17.057Z,15.66
2022-09-03T05:53:40.547Z,15.76
2022-09-03T05:56:06.047Z,15.66
2022-09-03T05:58:31.930Z,15.84
2022-09-03T06:00:53.356Z,15.90
2022-09-03T06:03:14.887Z,15.95
2022-09-03T06:05:36.385Z,16.13
2022-09-03T06:07:57.903Z,15.97
2022-09-03T06:10:23.592Z,16.02
2022-09-03T06:12:51.466Z,16.18
2022-09-03T06:15:13.147Z,16.23
2022-09-03T06:17:34.633Z,16.23
2022-09-03T06:19:56.207Z,16.36
2022-09-03T06:22:17.667Z,16.40
2022-09-03T06:24:39.114Z,16.36
2022-09-03T06:27:01.478Z,16.44
2022-09-03T06:29:22.922Z,16.56
2022-09-03T06:31:44.837Z,16.54
2022-09-03T06:34:06.920Z,16.56
2022-09-03T06:36:28.825Z,16.50
2022-09-03T06:38:55.789Z,16.53
2022-09-03T06:41:21.080Z,16.61
2022-09-03T06:43:42.818Z,16.68
2022-09-03T06:46:10.922Z,16.68
2022-09-03T06:48:34.145Z,16.73
2022-09-03T06:51:01.598Z,16.66
2022-09-03T06:53:24.811Z,16.78
2022-09-03T06:55:55.421Z,16.62
2022-09-03T06:58:16.976Z,16.70
2022-09-03T07:00:38.518Z,16.70
2022-09-03T07:03:00.101Z,16.87
2022-09-03T07:05:21.734Z,16.97
2022-09-03T07:07:44.585Z,16.94
2022-09-03T07:10:06.694Z,17.01
2022-09-03T07:12:28.120Z,17.19
2022-09-03T07:14:51.092Z,17.15
2022-09-03T07:17:12.780Z,17.37
2022-09-03T07:19:34.211Z,17.34
2022-09-03T07:21:55.646Z,17.45
2022-09-03T07:24:18.335Z,17.58
2022-09-03T07:26:44.631Z,17.64
2022-09-03T07:29:11.622Z,17.67
2022-09-03T07:31:42.334Z,17.81
2022-09-03T07:34:10.054Z,17.94
2022-09-03T07:36:43.144Z,17.96
2022-09-03T07:39:04.846Z,18.01
2022-09-03T07:41:28.892Z,18.06
2022-09-03T07:43:50.932Z,18.13
2022-09-03T07:46:13.448Z,18.27
2022-09-03T07:48:37.494Z,18.32
2022-09-03T07:51:01.327Z,18.42
2022-09-03T07:53:23.002Z,18.56
2022-09-03T07:55:45.107Z,18.98
2022-09-03T07:58:07.851Z,18.99
2022-09-03T08:00:29.309Z,19.22
2022-09-03T08:02:52.185Z,19.18
2022-09-03T08:05:20.419Z,19.11
2022-09-03T08:07:41.849Z,19.42
2022-09-03T08:10:03.808Z,19.59
2022-09-03T08:12:25.318Z,19.85
2022-09-03T08:14:46.811Z,19.84
2022-09-03T08:17:08.332Z,19.99
2022-09-03T08:19:29.778Z,20.03
2022-09-03T08:21:51.320Z,20.22
2022-09-03T08:24:16.673Z,20.52
2022-09-03T08:26:41.898Z,20.71
2022-09-03T08:29:04.128Z,21.03
2022-09-03T08:31:26.621Z,21.20
2022-09-03T08:33:50.842Z,21.24
2022-09-03T08:36:19.654Z,21.57
2022-09-03T08:38:43.548Z,21.64
2022-09-03T08:41:35.125Z,21.90
2022-09-03T08:44:21.976Z,22.03
2022-09-03T08:46:51.898Z,22.22
2022-09-03T08:49:17.717Z,22.44
2022-09-03T08:51:41.777Z,22.60
2022-09-03T08:54:04.550Z,22.85
2022-09-03T08:56:31.339Z,23.15
2022-09-03T08:58:52.879Z,23.48
2022-09-03T09:01:34.954Z,23.79
2022-09-03T09:04:24.406Z,24.09
2022-09-03T09:07:07.390Z,24.23
2022-09-03T09:09:49.802Z,24.56
2022-09-03T09:12:21.848Z,24.59
2022-09-03T09:15:03.919Z,24.58
2022-09-03T09:17:31.268Z,24.65
2022-09-03T09:20:15.752Z,24.98
2022-09-03T09:22:58.857Z,25.10
2022-09-03T09:25:23.231Z,25.31
2022-09-03T09:28:16.870Z,25.22
2022-09-03T09:30:39.546Z,25.44
2022-09-03T09:33:00.984Z,25.63
2022-09-03T09:35:23.544Z,25.71
2022-09-03T09:37:50.470Z,25.69
2022-09-03T09:40:23.057Z,25.89
2022-09-03T09:42:44.579Z,25.95
2022-09-03T09:45:11.315Z,26.23
2022-09-03T09:47:39.320Z,26.51
2022-09-03T09:50:02.808Z,26.37
2022-09-03T09:52:27.163Z,26.54
2022-09-03T09:54:48.662Z,26.76
2022-09-03T09:57:24.561Z,26.50
2022-09-03T09:59:50.421Z,26.72
2022-09-03T10:02:26.655Z,26.45
2022-09-03T10:04:48.196Z,26.46
2022-09-03T10:07:32.191Z,26.34
2022-09-03T10:10:14.856Z,26.14
2022-09-03T10:12:43.465Z,25.53
2022-09-03T10:15:17.938Z,25.56
2022-09-03T10:17:49.701Z,25.45
2022-09-03T10:20:27.943Z,25.23
2022-09-03T10:23:05.317Z,24.99
2022-09-03T10:25:35.829Z,25.15
2022-09-03T10:28:00.371Z,24.94
2022-09-03T10:30:23.025Z,24.92
2022-09-03T10:33:26.126Z,25.22
2022-09-03T10:35:53.432Z,25.30
2022-09-03T10:38:28.665Z,25.18
2022-09-03T10:41:09.023Z,25.13
2022-09-03T10:44:07.166Z,25.49
2022-09-03T10:46:52.169Z,25.33
2022-09-03T10:49:28.740Z,25.63
2022-09-03T10:52:15.673Z,25.89
2022-09-03T10:55:00.081Z,26.14
2022-09-03T10:57:36.964Z,26.29
2022-09-03T11:00:12.945Z,26.22
2022-09-03T11:02:43.215Z,26.38
2022-09-03T11:05:20.836Z,26.49
2022-09-03T11:07:50.946Z,26.64
2022-09-03T11:10:16.214Z,26.88
2022-09-03T11:12:52.969Z,27.23
2022-09-03T11:15:48.223Z,27.45
2022-09-03T11:18:12.345Z,27.59
2022-09-03T11:20:34.342Z,27.81
2022-09-03T11:23:01.419Z,28.04
2022-09-03T11:25:31.053Z,28.33
2022-09-03T11:28:26.264Z,28.12
2022-09-03T11:31:33.327Z,28.46
2022-09-03T11:34:06.328Z,28.54
2022-09-03T11:36:35.486Z,28.12
2022-09-03T11:38:57.117Z,27.91
2022-09-03T11:41:28.679Z,27.80
2022-09-03T11:43:50.213Z,28.02
2022-09-03T11:46:28.021Z,28.01
2022-09-03T11:48:52.141Z,27.80
2022-09-03T11:51:33.004Z,27.83
2022-09-03T11:53:55.936Z,27.76
2022-09-03T11:56:19.259Z,27.66
2022-09-03T11:58:42.972Z,27.68
2022-09-03T12:01:10.372Z,27.50
2022-09-03T12:03:42.373Z,27.76
2022-09-03T12:06:29.043Z,27.51
2022-09-03T12:09:31.490Z,27.20
2022-09-03T12:12:14.120Z,27.64
2022-09-03T12:14:57.156Z,27.64
2022-09-03T12:17:49.940Z,28.01
2022-09-03T12:20:14.865Z,28.13
2022-09-03T12:22:38.669Z,28.16
2022-09-03T12:25:15.088Z,28.24
2022-09-03T12:27:36.695Z,28.17
2022-09-03T12:30:00.655Z,28.16
2022-09-03T12:32:22.851Z,27.86
2022-09-03T12:34:47.230Z,27.51
2022-09-03T12:38:04.098Z,27.34
2022-09-03T12:40:07.783Z,27.34
2022-09-03T12:42:31.931Z,27.67
2022-09-03T12:44:53.583Z,27.67
2022-09-03T12:47:35.645Z,27.87
2022-09-03T12:50:04.725Z,27.86
2022-09-03T12:52:50.917Z,28.22
2022-09-03T12:55:32.723Z,28.00
2022-09-03T12:58:04.588Z,27.49
2022-09-03T13:00:28.812Z,27.32
2022-09-03T13:03:12.981Z,27.48
2022-09-03T13:05:48.624Z,27.27
2022-09-03T13:08:17.623Z,27.19
2022-09-03T13:10:43.716Z,27.32
2022-09-03T13:13:19.589Z,27.28
2022-09-03T13:15:41.099Z,26.84
2022-09-03T13:18:21.382Z,26.35
2022-09-03T13:21:07.018Z,26.63
2022-09-03T13:23:48.466Z,26.72
2022-09-03T13:26:16.256Z,26.47
2022-09-03T13:28:58.364Z,26.46
2022-09-03T13:31:43.401Z,26.13
2022-09-03T13:34:27.989Z,26.26
2022-09-03T13:36:55.856Z,26.15
2022-09-03T13:39:41.007Z,26.16
2022-09-03T13:42:13.230Z,25.93
2022-09-03T13:44:58.874Z,25.03
2022-09-03T13:47:34.969Z,24.83
2022-09-03T13:50:26.710Z,24.10
2022-09-03T13:53:00.813Z,23.89
2022-09-03T13:55:31.364Z,23.95
2022-09-03T13:58:27.736Z,24.06
2022-09-03T14:01:09.272Z,24.23
2022-09-03T14:03:52.542Z,24.12
2022-09-03T14:06:19.717Z,24.20
2022-09-03T14:09:11.869Z,23.86
2022-09-03T14:11:54.929Z,23.91
2022-09-03T14:14:50.455Z,23.76
2022-09-03T14:17:23.556Z,23.32
2022-09-03T14:20:04.769Z,23.14
2022-09-03T14:22:50.588Z,23.03
2022-09-03T14:25:17.014Z,23.23
2022-09-03T14:27:38.685Z,23.29
2022-09-03T14:30:03.673Z,23.58
2022-09-03T14:32:35.628Z,23.52
2022-09-03T14:35:00.850Z,23.52
2022-09-03T14:37:37.447Z,23.78
2022-09-03T14:40:13.541Z,23.75
2022-09-03T14:42:54.799Z,22.91
2022-09-03T14:45:47.380Z,22.33
2022-09-03T14:48:21.590Z,21.95
2022-09-03T14:51:20.470Z,21.45
2022-09-03T14:53:51.252Z,21.26
2022-09-03T14:56:29.068Z,21.21
2022-09-03T14:59:18.337Z,21.23
2022-09-03T15:01:40.005Z,21.43
2022-09-03T15:04:10.417Z,21.36
2022-09-03T15:07:07.545Z,21.58
2022-09-03T15:09:54.483Z,21.69
2022-09-03T15:12:34.384Z,21.82
2022-09-03T15:14:58.457Z,21.63
2022-09-03T15:17:53.331Z,21.72
2022-09-03T15:20:24.354Z,21.59
2022-09-03T15:23:13.573Z,21.58
2022-09-03T15:26:16.415Z,21.58
2022-09-03T15:29:06.164Z,21.58
2022-09-03T15:31:58.094Z,21.43
2022-09-03T15:34:22.537Z,21.47
2022-09-03T15:36:49.614Z,21.51
2022-09-03T15:39:16.382Z,21.51
2022-09-03T15:41:47.974Z,21.28
2022-09-03T15:44:20.019Z,21.18
2022-09-03T15:46:44.553Z,20.94
2022-09-03T15:49:19.103Z,20.92
2022-09-03T15:51:57.605Z,21.14
2022-09-03T15:54:31.190Z,21.26
2022-09-03T15:57:05.883Z,21.37
2022-09-03T15:59:54.890Z,21.55
2022-09-03T16:02:20.921Z,21.62
2022-09-03T16:05:05.911Z,21.74
2022-09-03T16:07:34.419Z,21.67
2022-09-03T16:10:26.473Z,21.87
2022-09-03T16:13:23.886Z,21.78
2022-09-03T16:15:58.212Z,21.64
2022-09-03T16:18:30.252Z,21.73
2022-09-03T16:21:01.393Z,21.86
2022-09-03T16:23:30.402Z,21.62
2022-09-03T16:26:05.357Z,21.49
2022-09-03T16:28:37.811Z,21.45
2022-09-03T16:31:36.872Z,21.67
2022-09-03T16:34:18.528Z,21.65
2022-09-03T16:37:13.222Z,21.62
2022-09-03T16:40:03.214Z,21.70
2022-09-03T16:42:32.472Z,21.76
2022-09-03T16:45:30.780Z,21.78
2022-09-03T16:48:14.663Z,21.71
2022-09-03T16:50:53.789Z,21.80
2022-09-03T16:53:44.359Z,21.69
2022-09-03T16:56:50.896Z,21.74
2022-09-03T16:59:41.486Z,21.77
2022-09-03T17:02:40.425Z,21.71
2022-09-03T17:05:33.745Z,21.67
2022-09-03T17:08:12.138Z,21.67
2022-09-03T17:11:02.643Z,21.61
2022-09-03T17:13:53.444Z,21.40
2022-09-03T17:16:42.229Z,21.29
2022-09-03T17:19:09.426Z,21.10
2022-09-03T17:21:55.206Z,20.96
2022-09-03T17:24:36.122Z,21.04
2022-09-03T17:27:21.091Z,20.89
2022-09-03T17:30:00.624Z,20.87
2022-09-03T17:32:46.143Z,20.78
2022-09-03T17:35:26.195Z,20.83
2022-09-03T17:38:12.783Z,20.64
2022-09-03T17:40:52.584Z,20.36
2022-09-03T17:43:21.202Z,20.37
2022-09-03T17:45:56.088Z,20.52
2022-09-03T17:48:51.373Z,20.51
2022-09-03T17:51:23.976Z,20.52
2022-09-03T17:53:52.028Z,20.55
2022-09-03T17:56:26.874Z,20.53
2022-09-03T17:58:55.520Z,20.65
2022-09-03T18:01:21.524Z,20.46
2022-09-03T18:04:12.608Z,20.27
2022-09-03T18:06:46.159Z,20.29
2022-09-03T18:09:22.107Z,20.29
2022-09-03T18:11:50.438Z,20.24
2022-09-03T18:14:33.958Z,20.26
2022-09-03T18:17:09.556Z,20.24
2022-09-03T18:20:14.216Z,20.23
2022-09-03T18:23:12.206Z,20.18
2022-09-03T18:25:54.687Z,20.08
2022-09-03T18:28:43.362Z,20.08
2022-09-03T18:31:23.955Z,20.13
2022-09-03T18:34:04.312Z,20.19
2022-09-03T18:36:44.806Z,20.19
2022-09-03T18:39:33.594Z,20.11
2022-09-03T18:42:28.656Z,20.04
2022-09-03T18:46:28.026Z,19.97
2022-09-03T18:49:14.862Z,19.85
2022-09-03T18:52:01.545Z,19.83
2022-09-03T18:55:12.312Z,19.81
2022-09-03T18:58:29.397Z,19.72
2022-09-03T19:01:28.997Z,19.72
2022-09-03T19:04:19.467Z,19.69
2022-09-03T19:07:09.269Z,19.62
2022-09-03T19:10:10.326Z,19.60
2022-09-03T19:13:31.109Z,19.66
2022-09-03T19:16:23.275Z,19.56
2022-09-03T19:19:32.888Z,19.49
2022-09-03T19:22:27.165Z,19.39
2022-09-03T19:25:10.736Z,19.27
2022-09-03T19:28:05.064Z,19.10
2022-09-03T19:30:50.927Z,19.14
2022-09-03T19:33:49.438Z,19.22
2022-09-03T19:36:45.790Z,19.31
2022-09-03T19:39:54.976Z,19.28
2022-09-03T19:42:58.921Z,19.33
2022-09-03T19:46:09.437Z,19.26
2022-09-03T19:49:38.158Z,19.26
2022-09-03T19:52:41.708Z,19.23
2022-09-03T19:55:22.083Z,19.20
2022-09-03T19:58:20.446Z,19.19
2022-09-03T20:01:07.889Z,19.24
2022-09-03T20:03:49.052Z,19.28
2022-09-03T20:06:30.591Z,19.25
2022-09-03T20:09:10.636Z,19.29
2022-09-03T20:11:32.168Z,19.25
2022-09-03T20:14:12.241Z,19.19
2022-09-03T20:17:15.398Z,19.09
2022-09-03T20:19:54.387Z,19.09
2022-09-03T20:22:29.126Z,19.05
2022-09-03T20:25:26.835Z,19.07
2022-09-03T20:28:11.048Z,19.07
2022-09-03T20:30:46.388Z,19.05
2022-09-03T20:33:34.341Z,19.06
2022-09-03T20:36:21.748Z,18.94
2022-09-03T20:39:15.484Z,18.82
2022-09-03T20:41:55.221Z,18.81
2022-09-03T20:44:25.447Z,18.83
2022-09-03T20:47:05.656Z,18.86
2022-09-03T20:50:09.997Z,18.86
2022-09-03T20:52:53.268Z,18.80
2022-09-03T20:55:21.477Z,18.84
2022-09-03T20:58:04.501Z,18.81
2022-09-03T21:00:27.367Z,18.79
2022-09-03T21:02:55.213Z,18.77
2022-09-03T21:05:26.611Z,18.76
2022-09-03T21:08:03.227Z,18.67
2022-09-03T21:10:37.811Z,18.59
2022-09-03T21:13:41.509Z,18.54
2022-09-03T21:16:34.696Z,18.40
2022-09-03T21:19:17.550Z,18.21
2022-09-03T21:21:53.166Z,17.99
2022-09-03T21:24:32.604Z,18.05
2022-09-03T21:27:01.636Z,18.04
2022-09-03T21:29:30.875Z,18.03
2022-09-03T21:32:15.457Z,18.02
2022-09-03T21:34:44.916Z,17.95
2022-09-03T21:37:11.554Z,17.62
2022-09-03T21:39:42.443Z,17.54
2022-09-03T21:42:09.780Z,17.61
2022-09-03T21:44:40.143Z,17.48
2022-09-03T21:47:11.002Z,17.50
2022-09-03T21:49:39.861Z,17.48
2022-09-03T21:52:08.003Z,17.35
2022-09-03T21:54:33.640Z,17.24
2022-09-03T21:57:22.236Z,17.29
2022-09-03T22:00:05.670Z,17.21
2022-09-03T22:02:29.991Z,17.24
2022-09-03T22:04:52.217Z,17.24
2022-09-03T22:07:26.055Z,17.29
2022-09-03T22:10:16.676Z,17.24
2022-09-03T22:13:00.812Z,17.16
2022-09-03T22:15:22.939Z,17.07
2022-09-03T22:18:07.359Z,17.03
2022-09-03T22:20:28.988Z,16.90
2022-09-03T22:23:03.665Z,16.94
2022-09-03T22:25:48.204Z,16.96
2022-09-03T22:28:32.608Z,16.86
2022-09-03T22:31:17.903Z,16.78
2022-09-03T22:34:04.468Z,16.85
2022-09-03T22:36:40.388Z,16.84
2022-09-03T22:39:28.331Z,16.56
2022-09-03T22:42:10.049Z,16.43
2022-09-03T22:44:59.487Z,15.96
2022-09-03T22:47:48.317Z,15.85
2022-09-03T22:50:12.416Z,15.90
2022-09-03T22:52:44.439Z,15.96
2022-09-03T22:55:14.644Z,16.02
2022-09-03T22:57:43.083Z,16.07
2022-09-03T23:00:08.040Z,16.04
2022-09-03T23:02:31.639Z,16.02
2022-09-03T23:05:10.597Z,15.86
2022-09-03T23:08:06.544Z,15.95
2022-09-03T23:10:32.611Z,15.97
2022-09-03T23:13:07.815Z,15.98
2022-09-03T23:15:31.694Z,15.98
2022-09-03T23:18:09.327Z,15.64
2022-09-03T23:20:34.798Z,15.53
2022-09-03T23:23:05.100Z,15.44
2022-09-03T23:25:32.768Z,15.44
2022-09-03T23:28:00.875Z,15.41
2022-09-03T23:30:22.348Z,15.44
2022-09-03T23:32:43.942Z,15.47
2022-09-03T23:35:17.787Z,15.48
2022-09-03T23:37:57.600Z,15.30
2022-09-03T23:40:32.262Z,15.33
2022-09-03T23:43:07.288Z,15.33
2022-09-03T23:45:43.878Z,15.27
2022-09-03T23:48:43.076Z,15.34
2022-09-03T23:51:26.315Z,15.42
2022-09-03T23:54:11.906Z,15.27
2022-09-03T23:56:48.843Z,15.28
2022-09-03T23:59:27.554Z,15.22
